sensor_id;sensor_type;location;lat;lon;timestamp;temperature;humidity
17879;DHT22;9065;51.050;13.758;2022-08-01T00:02:07;23.10;99.90
17879;DHT22;9065;51.050;13.758;2022-08-01T00:04:34;23.00;99.90
17879;DHT22;9065;51.050;13.758;2022-08-01T00:07:03;23.10;99.90
17879;DHT22;9065;51.050;13.758;2022-08-01T00:09:30;23.10;99.90
17879;DHT22;9065;51.050;13.758;2022-08-01T00:11:57;23.10;99.90
17879;DHT22;9065;51.050;13.758;2022-08-01T00:14:24;23.00;99.90
17879;DHT22;9065;51.050;13.758;2022-08-01T00:16:52;23.00;99.90
17879;DHT22;9065;51.050;13.758;2022-08-01T00:19:19;23.00;99.90
17879;DHT22;9065;51.050;13.758;2022-08-01T00:21:47;23.00;99.90
17879;DHT22;9065;51.050;13.758;2022-08-01T00:24:15;23.00;99.90
17879;DHT22;9065;51.050;13.758;2022-08-01T00:26:41;23.00;99.90
17879;DHT22;9065;51.050;13.758;2022-08-01T00:29:08;22.90;99.90
17879;DHT22;9065;51.050;13.758;2022-08-01T00:31:36;22.90;99.90
17879;DHT22;9065;51.050;13.758;2022-08-01T00:34:04;22.80;99.90
17879;DHT22;9065;51.050;13.758;2022-08-01T00:36:38;22.90;99.90
17879;DHT22;9065;51.050;13.758;2022-08-01T00:39:07;22.80;99.90
17879;DHT22;9065;51.050;13.758;2022-08-01T00:41:36;22.90;99.90
17879;DHT22;9065;51.050;13.758;2022-08-01T00:44:04;22.80;99.90
17879;DHT22;9065;51.050;13.758;2022-08-01T00:46:31;22.80;99.90
17879;DHT22;9065;51.050;13.758;2022-08-01T00:49:00;22.70;99.90
17879;DHT22;9065;51.050;13.758;2022-08-01T00:51:34;22.70;99.90
17879;DHT22;9065;51.050;13.758;2022-08-01T00:54:01;22.70;99.90
17879;DHT22;9065;51.050;13.758;2022-08-01T00:56:29;22.70;99.90
17879;DHT22;9065;51.050;13.758;2022-08-01T00:58:58;22.60;99.90
17879;DHT22;9065;51.050;13.758;2022-08-01T01:01:25;22.50;99.90
17879;DHT22;9065;51.050;13.758;2022-08-01T01:03:53;22.50;99.90
17879;DHT22;9065;51.050;13.758;2022-08-01T01:06:31;22.40;99.90
17879;DHT22;9065;51.050;13.758;2022-08-01T01:09:17;22.30;99.90
17879;DHT22;9065;51.050;13.758;2022-08-01T01:11:51;22.20;99.90
17879;DHT22;9065;51.050;13.758;2022-08-01T01:14:30;22.10;99.90
17879;DHT22;9065;51.050;13.758;2022-08-01T01:17:00;22.10;99.90
17879;DHT22;9065;51.050;13.758;2022-08-01T01:19:32;22.10;99.90
17879;DHT22;9065;51.050;13.758;2022-08-01T01:22:27;22.00;99.90
17879;DHT22;9065;51.050;13.758;2022-08-01T01:25:23;22.00;99.90
17879;DHT22;9065;51.050;13.758;2022-08-01T01:28:02;21.90;99.90
17879;DHT22;9065;51.050;13.758;2022-08-01T01:30:34;21.90;99.90
17879;DHT22;9065;51.050;13.758;2022-08-01T01:33:04;21.80;99.90
17879;DHT22;9065;51.050;13.758;2022-08-01T01:35:35;21.70;99.90
17879;DHT22;9065;51.050;13.758;2022-08-01T01:38:07;21.70;99.90
17879;DHT22;9065;51.050;13.758;2022-08-01T01:40:38;21.70;99.90
17879;DHT22;9065;51.050;13.758;2022-08-01T01:43:10;21.70;99.90
17879;DHT22;9065;51.050;13.758;2022-08-01T01:45:42;21.70;99.90
17879;DHT22;9065;51.050;13.758;2022-08-01T01:48:13;21.70;99.90
17879;DHT22;9065;51.050;13.758;2022-08-01T01:50:42;21.70;99.90
17879;DHT22;9065;51.050;13.758;2022-08-01T01:53:10;21.70;99.90
17879;DHT22;9065;51.050;13.758;2022-08-01T01:55:39;21.80;99.90
17879;DHT22;9065;51.050;13.758;2022-08-01T01:58:13;21.80;99.90
17879;DHT22;9065;51.050;13.758;2022-08-01T02:00:42;21.80;99.90
17879;DHT22;9065;51.050;13.758;2022-08-01T02:03:12;21.80;99.90
17879;DHT22;9065;51.050;13.758;2022-08-01T02:05:41;21.70;99.90
17879;DHT22;9065;51.050;13.758;2022-08-01T02:08:16;21.70;99.90
17879;DHT22;9065;51.050;13.758;2022-08-01T02:10:44;21.70;99.90
17879;DHT22;9065;51.050;13.758;2022-08-01T02:13:34;21.80;99.90
17879;DHT22;9065;51.050;13.758;2022-08-01T02:16:05;21.80;99.90
17879;DHT22;9065;51.050;13.758;2022-08-01T02:18:32;21.80;99.90
17879;DHT22;9065;51.050;13.758;2022-08-01T02:21:03;21.80;99.90
17879;DHT22;9065;51.050;13.758;2022-08-01T02:23:33;21.80;99.90
17879;DHT22;9065;51.050;13.758;2022-08-01T02:26:07;21.90;99.90
17879;DHT22;9065;51.050;13.758;2022-08-01T02:28:38;21.90;99.90
17879;DHT22;9065;51.050;13.758;2022-08-01T02:31:12;21.90;99.90
17879;DHT22;9065;51.050;13.758;2022-08-01T02:33:53;21.90;99.90
17879;DHT22;9065;51.050;13.758;2022-08-01T02:36:26;22.00;99.90
17879;DHT22;9065;51.050;13.758;2022-08-01T02:38:56;22.00;99.90
17879;DHT22;9065;51.050;13.758;2022-08-01T02:41:26;22.00;99.90
17879;DHT22;9065;51.050;13.758;2022-08-01T02:43:59;22.00;99.90
17879;DHT22;9065;51.050;13.758;2022-08-01T02:46:35;21.90;99.90
17879;DHT22;9065;51.050;13.758;2022-08-01T02:49:05;21.90;99.90
17879;DHT22;9065;51.050;13.758;2022-08-01T02:51:34;22.00;99.90
17879;DHT22;9065;51.050;13.758;2022-08-01T02:54:02;22.00;99.90
17879;DHT22;9065;51.050;13.758;2022-08-01T02:56:31;22.00;99.90
17879;DHT22;9065;51.050;13.758;2022-08-01T02:59:04;22.00;99.90
17879;DHT22;9065;51.050;13.758;2022-08-01T03:01:35;22.00;99.90
17879;DHT22;9065;51.050;13.758;2022-08-01T03:04:04;22.00;99.90
17879;DHT22;9065;51.050;13.758;2022-08-01T03:06:31;21.90;99.90
17879;DHT22;9065;51.050;13.758;2022-08-01T03:09:00;21.90;99.90
17879;DHT22;9065;51.050;13.758;2022-08-01T03:11:29;21.90;99.90
17879;DHT22;9065;51.050;13.758;2022-08-01T03:14:00;21.80;99.90
17879;DHT22;9065;51.050;13.758;2022-08-01T03:16:30;21.80;99.90
17879;DHT22;9065;51.050;13.758;2022-08-01T03:19:02;21.70;99.90
17879;DHT22;9065;51.050;13.758;2022-08-01T03:21:32;21.70;99.90
17879;DHT22;9065;51.050;13.758;2022-08-01T03:24:01;21.70;99.90
17879;DHT22;9065;51.050;13.758;2022-08-01T03:26:31;21.80;99.90
17879;DHT22;9065;51.050;13.758;2022-08-01T03:29:04;21.80;99.90
17879;DHT22;9065;51.050;13.758;2022-08-01T03:31:34;21.80;99.90
17879;DHT22;9065;51.050;13.758;2022-08-01T03:34:04;21.80;99.90
17879;DHT22;9065;51.050;13.758;2022-08-01T03:36:33;21.90;99.90
17879;DHT22;9065;51.050;13.758;2022-08-01T03:39:06;21.90;99.90
17879;DHT22;9065;51.050;13.758;2022-08-01T03:41:40;21.90;99.90
17879;DHT22;9065;51.050;13.758;2022-08-01T03:44:11;21.90;99.90
17879;DHT22;9065;51.050;13.758;2022-08-01T03:46:42;22.00;99.90
17879;DHT22;9065;51.050;13.758;2022-08-01T03:49:16;21.90;99.90
17879;DHT22;9065;51.050;13.758;2022-08-01T03:51:45;21.90;99.90
17879;DHT22;9065;51.050;13.758;2022-08-01T03:54:14;21.90;99.90
17879;DHT22;9065;51.050;13.758;2022-08-01T03:56:45;21.90;99.90
17879;DHT22;9065;51.050;13.758;2022-08-01T03:59:14;22.00;99.90
17879;DHT22;9065;51.050;13.758;2022-08-01T04:01:43;22.00;99.90
17879;DHT22;9065;51.050;13.758;2022-08-01T04:04:10;22.00;99.90
17879;DHT22;9065;51.050;13.758;2022-08-01T04:06:40;22.00;99.90
17879;DHT22;9065;51.050;13.758;2022-08-01T04:09:09;22.00;99.90
17879;DHT22;9065;51.050;13.758;2022-08-01T04:11:39;22.00;99.90
17879;DHT22;9065;51.050;13.758;2022-08-01T04:14:10;22.00;99.90
17879;DHT22;9065;51.050;13.758;2022-08-01T04:16:38;22.00;99.90
17879;DHT22;9065;51.050;13.758;2022-08-01T04:19:07;22.00;99.90
17879;DHT22;9065;51.050;13.758;2022-08-01T04:21:34;22.00;99.90
17879;DHT22;9065;51.050;13.758;2022-08-01T04:24:09;22.00;99.90
17879;DHT22;9065;51.050;13.758;2022-08-01T04:26:38;22.00;99.90
17879;DHT22;9065;51.050;13.758;2022-08-01T04:29:08;22.10;99.90
17879;DHT22;9065;51.050;13.758;2022-08-01T04:31:37;22.00;99.90
17879;DHT22;9065;51.050;13.758;2022-08-01T04:34:07;22.00;99.90
17879;DHT22;9065;51.050;13.758;2022-08-01T04:36:42;22.00;99.90
17879;DHT22;9065;51.050;13.758;2022-08-01T04:39:13;22.10;99.90
17879;DHT22;9065;51.050;13.758;2022-08-01T04:41:43;22.20;99.90
17879;DHT22;9065;51.050;13.758;2022-08-01T04:44:13;22.30;99.90
17879;DHT22;9065;51.050;13.758;2022-08-01T04:46:40;22.30;99.90
17879;DHT22;9065;51.050;13.758;2022-08-01T04:49:08;22.30;99.90
17879;DHT22;9065;51.050;13.758;2022-08-01T04:51:36;22.30;99.90
17879;DHT22;9065;51.050;13.758;2022-08-01T04:54:03;22.30;99.90
17879;DHT22;9065;51.050;13.758;2022-08-01T04:56:35;22.30;99.90
17879;DHT22;9065;51.050;13.758;2022-08-01T04:59:03;22.30;99.90
17879;DHT22;9065;51.050;13.758;2022-08-01T05:01:54;22.20;99.90
17879;DHT22;9065;51.050;13.758;2022-08-01T05:04:21;22.20;99.90
17879;DHT22;9065;51.050;13.758;2022-08-01T05:06:49;22.10;99.90
17879;DHT22;9065;51.050;13.758;2022-08-01T05:09:17;22.00;99.90
17879;DHT22;9065;51.050;13.758;2022-08-01T05:11:46;22.00;99.90
17879;DHT22;9065;51.050;13.758;2022-08-01T05:14:12;21.90;99.90
17879;DHT22;9065;51.050;13.758;2022-08-01T05:16:40;22.00;99.90
17879;DHT22;9065;51.050;13.758;2022-08-01T05:19:09;22.00;99.90
17879;DHT22;9065;51.050;13.758;2022-08-01T05:21:36;22.00;99.90
17879;DHT22;9065;51.050;13.758;2022-08-01T05:24:03;22.00;99.90
17879;DHT22;9065;51.050;13.758;2022-08-01T05:26:32;21.90;99.90
17879;DHT22;9065;51.050;13.758;2022-08-01T05:29:02;21.90;99.90
17879;DHT22;9065;51.050;13.758;2022-08-01T05:31:30;21.90;99.90
17879;DHT22;9065;51.050;13.758;2022-08-01T05:34:00;21.90;99.90
17879;DHT22;9065;51.050;13.758;2022-08-01T05:36:27;22.00;99.90
17879;DHT22;9065;51.050;13.758;2022-08-01T05:38:55;22.00;99.90
17879;DHT22;9065;51.050;13.758;2022-08-01T05:41:22;22.10;99.90
17879;DHT22;9065;51.050;13.758;2022-08-01T05:43:50;22.20;99.90
17879;DHT22;9065;51.050;13.758;2022-08-01T05:46:18;22.40;99.90
17879;DHT22;9065;51.050;13.758;2022-08-01T05:48:47;22.50;99.90
17879;DHT22;9065;51.050;13.758;2022-08-01T05:51:14;22.40;99.90
17879;DHT22;9065;51.050;13.758;2022-08-01T05:53:41;22.50;99.90
17879;DHT22;9065;51.050;13.758;2022-08-01T05:56:09;22.60;99.90
17879;DHT22;9065;51.050;13.758;2022-08-01T05:58:37;22.60;99.90
17879;DHT22;9065;51.050;13.758;2022-08-01T06:01:05;22.60;99.90
17879;DHT22;9065;51.050;13.758;2022-08-01T06:03:35;22.50;99.90
17879;DHT22;9065;51.050;13.758;2022-08-01T06:06:04;22.50;99.90
17879;DHT22;9065;51.050;13.758;2022-08-01T06:08:32;22.40;99.90
17879;DHT22;9065;51.050;13.758;2022-08-01T06:11:00;22.40;99.90
17879;DHT22;9065;51.050;13.758;2022-08-01T06:13:27;22.40;99.90
17879;DHT22;9065;51.050;13.758;2022-08-01T06:15:54;22.40;99.90
17879;DHT22;9065;51.050;13.758;2022-08-01T06:18:21;22.30;99.90
17879;DHT22;9065;51.050;13.758;2022-08-01T06:20:51;22.30;99.90
17879;DHT22;9065;51.050;13.758;2022-08-01T06:23:18;22.30;99.90
17879;DHT22;9065;51.050;13.758;2022-08-01T06:25:48;22.30;99.90
17879;DHT22;9065;51.050;13.758;2022-08-01T06:28:16;22.20;99.90
17879;DHT22;9065;51.050;13.758;2022-08-01T06:30:43;22.20;99.90
17879;DHT22;9065;51.050;13.758;2022-08-01T06:33:10;22.30;99.90
17879;DHT22;9065;51.050;13.758;2022-08-01T06:35:37;22.20;99.90
17879;DHT22;9065;51.050;13.758;2022-08-01T06:38:09;22.20;99.90
17879;DHT22;9065;51.050;13.758;2022-08-01T06:40:36;22.20;99.90
17879;DHT22;9065;51.050;13.758;2022-08-01T06:43:04;22.30;99.90
17879;DHT22;9065;51.050;13.758;2022-08-01T06:45:32;22.30;99.90
17879;DHT22;9065;51.050;13.758;2022-08-01T06:47:59;22.30;99.90
17879;DHT22;9065;51.050;13.758;2022-08-01T06:50:26;22.20;99.90
17879;DHT22;9065;51.050;13.758;2022-08-01T06:52:53;22.20;99.90
17879;DHT22;9065;51.050;13.758;2022-08-01T06:55:21;22.20;99.90
17879;DHT22;9065;51.050;13.758;2022-08-01T06:57:50;22.20;99.90
17879;DHT22;9065;51.050;13.758;2022-08-01T07:00:18;22.30;99.90
17879;DHT22;9065;51.050;13.758;2022-08-01T07:02:48;22.20;99.90
17879;DHT22;9065;51.050;13.758;2022-08-01T07:05:15;22.00;99.90
17879;DHT22;9065;51.050;13.758;2022-08-01T07:07:43;21.80;99.90
17879;DHT22;9065;51.050;13.758;2022-08-01T07:10:12;21.50;99.90
17879;DHT22;9065;51.050;13.758;2022-08-01T07:12:41;21.30;99.90
17879;DHT22;9065;51.050;13.758;2022-08-01T07:15:09;21.20;99.90
17879;DHT22;9065;51.050;13.758;2022-08-01T07:17:38;21.00;99.90
17879;DHT22;9065;51.050;13.758;2022-08-01T07:20:07;21.00;99.90
17879;DHT22;9065;51.050;13.758;2022-08-01T07:22:37;20.90;99.90
17879;DHT22;9065;51.050;13.758;2022-08-01T07:25:05;20.80;99.90
17879;DHT22;9065;51.050;13.758;2022-08-01T07:27:32;20.80;99.90
17879;DHT22;9065;51.050;13.758;2022-08-01T07:30:02;20.80;99.90
17879;DHT22;9065;51.050;13.758;2022-08-01T07:32:30;20.80;99.90
17879;DHT22;9065;51.050;13.758;2022-08-01T07:34:58;20.80;99.90
17879;DHT22;9065;51.050;13.758;2022-08-01T07:37:25;20.80;99.90
17879;DHT22;9065;51.050;13.758;2022-08-01T07:39:53;20.80;99.90
17879;DHT22;9065;51.050;13.758;2022-08-01T07:42:26;20.90;99.90
17879;DHT22;9065;51.050;13.758;2022-08-01T07:44:53;21.00;99.90
17879;DHT22;9065;51.050;13.758;2022-08-01T07:47:25;21.10;99.90
17879;DHT22;9065;51.050;13.758;2022-08-01T07:49:59;21.10;99.90
17879;DHT22;9065;51.050;13.758;2022-08-01T07:52:26;21.30;99.90
17879;DHT22;9065;51.050;13.758;2022-08-01T07:54:54;21.40;99.90
17879;DHT22;9065;51.050;13.758;2022-08-01T07:57:24;21.60;99.90
17879;DHT22;9065;51.050;13.758;2022-08-01T07:59:52;21.70;99.90
17879;DHT22;9065;51.050;13.758;2022-08-01T08:02:18;22.00;99.90
17879;DHT22;9065;51.050;13.758;2022-08-01T08:04:47;22.20;99.90
17879;DHT22;9065;51.050;13.758;2022-08-01T08:07:14;22.30;99.90
17879;DHT22;9065;51.050;13.758;2022-08-01T08:09:42;22.30;99.90
17879;DHT22;9065;51.050;13.758;2022-08-01T08:12:09;22.30;99.90
17879;DHT22;9065;51.050;13.758;2022-08-01T08:14:37;22.40;99.90
17879;DHT22;9065;51.050;13.758;2022-08-01T08:17:06;22.50;99.90
17879;DHT22;9065;51.050;13.758;2022-08-01T08:19:33;22.50;99.90
17879;DHT22;9065;51.050;13.758;2022-08-01T08:22:04;22.50;99.90
17879;DHT22;9065;51.050;13.758;2022-08-01T08:24:32;22.60;99.90
17879;DHT22;9065;51.050;13.758;2022-08-01T08:27:00;22.80;99.90
17879;DHT22;9065;51.050;13.758;2022-08-01T08:29:29;23.10;99.90
17879;DHT22;9065;51.050;13.758;2022-08-01T08:31:59;23.30;99.90
17879;DHT22;9065;51.050;13.758;2022-08-01T08:34:28;23.50;99.90
17879;DHT22;9065;51.050;13.758;2022-08-01T08:36:56;23.70;99.90
17879;DHT22;9065;51.050;13.758;2022-08-01T08:39:25;23.90;99.90
17879;DHT22;9065;51.050;13.758;2022-08-01T08:41:56;23.80;99.90
17879;DHT22;9065;51.050;13.758;2022-08-01T08:44:24;23.60;99.90
17879;DHT22;9065;51.050;13.758;2022-08-01T08:46:52;23.60;99.90
17879;DHT22;9065;51.050;13.758;2022-08-01T08:49:23;23.40;99.90
17879;DHT22;9065;51.050;13.758;2022-08-01T08:51:51;23.50;99.90
17879;DHT22;9065;51.050;13.758;2022-08-01T08:54:22;23.80;99.90
17879;DHT22;9065;51.050;13.758;2022-08-01T08:56:53;23.90;99.90
17879;DHT22;9065;51.050;13.758;2022-08-01T08:59:22;24.20;99.90
17879;DHT22;9065;51.050;13.758;2022-08-01T09:01:50;24.40;99.90
17879;DHT22;9065;51.050;13.758;2022-08-01T09:04:20;24.60;99.90
17879;DHT22;9065;51.050;13.758;2022-08-01T09:06:48;24.80;99.90
17879;DHT22;9065;51.050;13.758;2022-08-01T09:09:14;24.80;99.90
17879;DHT22;9065;51.050;13.758;2022-08-01T09:11:41;24.60;99.90
17879;DHT22;9065;51.050;13.758;2022-08-01T09:14:11;24.70;99.90
17879;DHT22;9065;51.050;13.758;2022-08-01T09:16:41;24.80;99.90
17879;DHT22;9065;51.050;13.758;2022-08-01T09:19:11;25.00;99.90
17879;DHT22;9065;51.050;13.758;2022-08-01T09:21:39;25.00;99.90
17879;DHT22;9065;51.050;13.758;2022-08-01T09:24:14;25.00;99.90
17879;DHT22;9065;51.050;13.758;2022-08-01T09:26:41;25.00;99.90
17879;DHT22;9065;51.050;13.758;2022-08-01T09:29:19;25.10;99.90
17879;DHT22;9065;51.050;13.758;2022-08-01T09:31:47;25.40;99.90
17879;DHT22;9065;51.050;13.758;2022-08-01T09:34:16;25.90;99.90
17879;DHT22;9065;51.050;13.758;2022-08-01T09:36:47;26.10;99.90
17879;DHT22;9065;51.050;13.758;2022-08-01T09:39:17;26.20;99.90
17879;DHT22;9065;51.050;13.758;2022-08-01T09:41:47;26.70;99.90
17879;DHT22;9065;51.050;13.758;2022-08-01T09:44:15;26.80;99.90
17879;DHT22;9065;51.050;13.758;2022-08-01T09:46:52;26.90;99.90
17879;DHT22;9065;51.050;13.758;2022-08-01T09:49:31;26.60;99.90
17879;DHT22;9065;51.050;13.758;2022-08-01T09:52:09;26.30;99.90
17879;DHT22;9065;51.050;13.758;2022-08-01T09:54:37;26.20;99.90
17879;DHT22;9065;51.050;13.758;2022-08-01T09:57:09;26.50;99.90
17879;DHT22;9065;51.050;13.758;2022-08-01T09:59:39;26.50;99.90
17879;DHT22;9065;51.050;13.758;2022-08-01T10:02:11;26.30;99.90
17879;DHT22;9065;51.050;13.758;2022-08-01T10:04:50;26.30;99.90
17879;DHT22;9065;51.050;13.758;2022-08-01T10:07:19;26.20;99.90
17879;DHT22;9065;51.050;13.758;2022-08-01T10:09:52;26.00;99.90
17879;DHT22;9065;51.050;13.758;2022-08-01T10:12:25;26.10;99.90
17879;DHT22;9065;51.050;13.758;2022-08-01T10:14:53;26.30;99.90
17879;DHT22;9065;51.050;13.758;2022-08-01T10:17:24;26.30;99.90
17879;DHT22;9065;51.050;13.758;2022-08-01T10:19:52;26.30;99.90
17879;DHT22;9065;51.050;13.758;2022-08-01T10:22:23;26.10;99.90
17879;DHT22;9065;51.050;13.758;2022-08-01T10:24:55;26.20;99.90
17879;DHT22;9065;51.050;13.758;2022-08-01T10:27:32;26.30;99.90
17879;DHT22;9065;51.050;13.758;2022-08-01T10:30:04;26.50;99.90
17879;DHT22;9065;51.050;13.758;2022-08-01T10:32:36;26.50;99.90
17879;DHT22;9065;51.050;13.758;2022-08-01T10:35:06;26.40;99.90
17879;DHT22;9065;51.050;13.758;2022-08-01T10:37:35;26.20;99.90
17879;DHT22;9065;51.050;13.758;2022-08-01T10:40:06;26.10;99.90
17879;DHT22;9065;51.050;13.758;2022-08-01T10:42:38;25.90;99.90
17879;DHT22;9065;51.050;13.758;2022-08-01T10:45:07;25.70;99.90
17879;DHT22;9065;51.050;13.758;2022-08-01T10:47:40;25.60;99.90
17879;DHT22;9065;51.050;13.758;2022-08-01T10:50:15;25.70;99.90
17879;DHT22;9065;51.050;13.758;2022-08-01T10:53:09;25.80;99.90
17879;DHT22;9065;51.050;13.758;2022-08-01T10:55:51;25.60;99.90
17879;DHT22;9065;51.050;13.758;2022-08-01T10:58:23;25.40;99.90
17879;DHT22;9065;51.050;13.758;2022-08-01T11:01:13;25.50;99.90
17879;DHT22;9065;51.050;13.758;2022-08-01T11:03:42;25.40;99.90
17879;DHT22;9065;51.050;13.758;2022-08-01T11:06:16;25.60;99.90
17879;DHT22;9065;51.050;13.758;2022-08-01T11:08:51;25.60;99.90
17879;DHT22;9065;51.050;13.758;2022-08-01T11:11:21;25.90;99.90
17879;DHT22;9065;51.050;13.758;2022-08-01T11:14:03;26.00;99.90
17879;DHT22;9065;51.050;13.758;2022-08-01T11:16:39;26.30;99.90
17879;DHT22;9065;51.050;13.758;2022-08-01T11:19:10;27.10;99.90
17879;DHT22;9065;51.050;13.758;2022-08-01T11:22:04;27.90;99.90
17879;DHT22;9065;51.050;13.758;2022-08-01T11:24:55;28.30;99.90
17879;DHT22;9065;51.050;13.758;2022-08-01T11:27:32;28.20;99.90
17879;DHT22;9065;51.050;13.758;2022-08-01T11:30:26;28.30;99.90
17879;DHT22;9065;51.050;13.758;2022-08-01T11:32:56;28.50;99.90
17879;DHT22;9065;51.050;13.758;2022-08-01T11:35:29;28.80;99.90
17879;DHT22;9065;51.050;13.758;2022-08-01T11:37:56;28.40;99.90
17879;DHT22;9065;51.050;13.758;2022-08-01T11:40:24;28.10;99.90
17879;DHT22;9065;51.050;13.758;2022-08-01T11:43:16;27.80;99.90
17879;DHT22;9065;51.050;13.758;2022-08-01T11:45:48;27.60;99.90
17879;DHT22;9065;51.050;13.758;2022-08-01T11:48:18;27.20;99.90
17879;DHT22;9065;51.050;13.758;2022-08-01T11:50:53;27.00;99.90
17879;DHT22;9065;51.050;13.758;2022-08-01T11:53:20;26.60;99.90
17879;DHT22;9065;51.050;13.758;2022-08-01T11:55:52;26.30;99.90
17879;DHT22;9065;51.050;13.758;2022-08-01T11:58:21;25.70;99.90
17879;DHT22;9065;51.050;13.758;2022-08-01T12:00:53;25.00;99.90
17879;DHT22;9065;51.050;13.758;2022-08-01T12:03:25;24.70;99.90
17879;DHT22;9065;51.050;13.758;2022-08-01T12:05:55;24.60;99.90
17879;DHT22;9065;51.050;13.758;2022-08-01T12:08:25;24.50;99.90
17879;DHT22;9065;51.050;13.758;2022-08-01T12:10:53;24.50;99.90
17879;DHT22;9065;51.050;13.758;2022-08-01T12:13:21;24.90;99.90
17879;DHT22;9065;51.050;13.758;2022-08-01T12:15:48;25.10;99.90
17879;DHT22;9065;51.050;13.758;2022-08-01T12:18:17;25.30;99.90
17879;DHT22;9065;51.050;13.758;2022-08-01T12:20:45;25.60;99.90
17879;DHT22;9065;51.050;13.758;2022-08-01T12:23:15;25.90;99.90
17879;DHT22;9065;51.050;13.758;2022-08-01T12:25:43;26.10;99.90
17879;DHT22;9065;51.050;13.758;2022-08-01T12:28:19;26.00;99.90
17879;DHT22;9065;51.050;13.758;2022-08-01T12:30:54;25.90;99.90
17879;DHT22;9065;51.050;13.758;2022-08-01T12:33:27;25.90;99.90
17879;DHT22;9065;51.050;13.758;2022-08-01T12:35:54;25.90;99.90
17879;DHT22;9065;51.050;13.758;2022-08-01T12:38:23;25.80;99.90
17879;DHT22;9065;51.050;13.758;2022-08-01T12:40:52;25.70;99.90
17879;DHT22;9065;51.050;13.758;2022-08-01T12:43:22;25.70;99.90
17879;DHT22;9065;51.050;13.758;2022-08-01T12:45:51;25.80;99.90
17879;DHT22;9065;51.050;13.758;2022-08-01T12:48:20;25.90;99.90
17879;DHT22;9065;51.050;13.758;2022-08-01T12:50:50;26.10;99.90
17879;DHT22;9065;51.050;13.758;2022-08-01T12:53:18;26.20;99.90
17879;DHT22;9065;51.050;13.758;2022-08-01T12:55:49;26.30;99.90
17879;DHT22;9065;51.050;13.758;2022-08-01T12:58:17;26.30;99.90
17879;DHT22;9065;51.050;13.758;2022-08-01T13:00:46;26.40;99.90
17879;DHT22;9065;51.050;13.758;2022-08-01T13:03:14;26.40;99.90
17879;DHT22;9065;51.050;13.758;2022-08-01T13:05:44;26.30;99.90
17879;DHT22;9065;51.050;13.758;2022-08-01T13:08:18;26.40;99.90
17879;DHT22;9065;51.050;13.758;2022-08-01T13:10:48;26.50;99.90
17879;DHT22;9065;51.050;13.758;2022-08-01T13:13:18;26.70;99.90
17879;DHT22;9065;51.050;13.758;2022-08-01T13:15:47;26.60;99.90
17879;DHT22;9065;51.050;13.758;2022-08-01T13:18:25;26.60;99.90
17879;DHT22;9065;51.050;13.758;2022-08-01T13:21:07;26.50;99.90
17879;DHT22;9065;51.050;13.758;2022-08-01T13:23:35;26.50;99.90
17879;DHT22;9065;51.050;13.758;2022-08-01T13:26:05;26.50;99.90
17879;DHT22;9065;51.050;13.758;2022-08-01T13:28:32;26.50;99.90
17879;DHT22;9065;51.050;13.758;2022-08-01T13:31:02;26.50;99.90
17879;DHT22;9065;51.050;13.758;2022-08-01T13:33:43;26.60;99.90
17879;DHT22;9065;51.050;13.758;2022-08-01T13:36:11;26.70;99.90
17879;DHT22;9065;51.050;13.758;2022-08-01T13:38:41;26.90;99.90
17879;DHT22;9065;51.050;13.758;2022-08-01T13:41:27;26.90;99.90
17879;DHT22;9065;51.050;13.758;2022-08-01T13:43:54;26.80;99.90
17879;DHT22;9065;51.050;13.758;2022-08-01T13:46:21;26.70;99.90
17879;DHT22;9065;51.050;13.758;2022-08-01T13:48:49;26.70;99.90
17879;DHT22;9065;51.050;13.758;2022-08-01T13:51:18;26.80;99.90
17879;DHT22;9065;51.050;13.758;2022-08-01T13:53:45;26.80;99.90
17879;DHT22;9065;51.050;13.758;2022-08-01T13:56:14;26.70;99.90
17879;DHT22;9065;51.050;13.758;2022-08-01T13:58:44;26.70;99.90
17879;DHT22;9065;51.050;13.758;2022-08-01T14:01:11;26.60;99.90
17879;DHT22;9065;51.050;13.758;2022-08-01T14:03:39;26.60;99.90
17879;DHT22;9065;51.050;13.758;2022-08-01T14:06:06;26.60;99.90
17879;DHT22;9065;51.050;13.758;2022-08-01T14:08:33;26.50;99.90
17879;DHT22;9065;51.050;13.758;2022-08-01T14:11:02;26.40;99.90
17879;DHT22;9065;51.050;13.758;2022-08-01T14:13:30;26.50;99.90
17879;DHT22;9065;51.050;13.758;2022-08-01T14:16:01;26.50;99.90
17879;DHT22;9065;51.050;13.758;2022-08-01T14:18:29;26.50;99.90
17879;DHT22;9065;51.050;13.758;2022-08-01T14:20:55;26.60;99.90
17879;DHT22;9065;51.050;13.758;2022-08-01T14:23:23;26.70;99.90
17879;DHT22;9065;51.050;13.758;2022-08-01T14:25:51;26.70;99.90
17879;DHT22;9065;51.050;13.758;2022-08-01T14:28:22;26.70;99.90
17879;DHT22;9065;51.050;13.758;2022-08-01T14:30:51;26.60;99.90
17879;DHT22;9065;51.050;13.758;2022-08-01T14:33:20;26.60;99.90
17879;DHT22;9065;51.050;13.758;2022-08-01T14:35:48;26.60;99.90
17879;DHT22;9065;51.050;13.758;2022-08-01T14:38:14;26.60;99.90
17879;DHT22;9065;51.050;13.758;2022-08-01T14:40:41;26.60;99.90
17879;DHT22;9065;51.050;13.758;2022-08-01T14:43:09;26.70;99.90
17879;DHT22;9065;51.050;13.758;2022-08-01T14:45:37;26.70;99.90
17879;DHT22;9065;51.050;13.758;2022-08-01T14:48:05;26.70;99.90
17879;DHT22;9065;51.050;13.758;2022-08-01T14:50:33;26.70;99.90
17879;DHT22;9065;51.050;13.758;2022-08-01T14:53:01;26.80;99.90
17879;DHT22;9065;51.050;13.758;2022-08-01T14:55:30;26.80;99.90
17879;DHT22;9065;51.050;13.758;2022-08-01T14:57:57;26.70;99.90
17879;DHT22;9065;51.050;13.758;2022-08-01T15:00:24;26.70;99.90
17879;DHT22;9065;51.050;13.758;2022-08-01T15:02:51;26.70;99.90
17879;DHT22;9065;51.050;13.758;2022-08-01T15:05:19;26.60;99.90
17879;DHT22;9065;51.050;13.758;2022-08-01T15:07:48;26.60;99.90
17879;DHT22;9065;51.050;13.758;2022-08-01T15:10:16;26.70;99.90
17879;DHT22;9065;51.050;13.758;2022-08-01T15:12:44;26.70;99.90
17879;DHT22;9065;51.050;13.758;2022-08-01T15:15:11;26.60;99.90
17879;DHT22;9065;51.050;13.758;2022-08-01T15:17:45;26.60;99.90
17879;DHT22;9065;51.050;13.758;2022-08-01T15:20:17;26.50;99.90
17879;DHT22;9065;51.050;13.758;2022-08-01T15:22:52;26.50;99.90
17879;DHT22;9065;51.050;13.758;2022-08-01T15:25:19;26.40;99.90
17879;DHT22;9065;51.050;13.758;2022-08-01T15:27:46;26.30;99.90
17879;DHT22;9065;51.050;13.758;2022-08-01T15:30:19;26.30;99.90
17879;DHT22;9065;51.050;13.758;2022-08-01T15:32:47;26.20;99.90
17879;DHT22;9065;51.050;13.758;2022-08-01T15:35:14;26.20;99.90
17879;DHT22;9065;51.050;13.758;2022-08-01T15:37:42;26.20;99.90
17879;DHT22;9065;51.050;13.758;2022-08-01T15:40:12;26.20;99.90
17879;DHT22;9065;51.050;13.758;2022-08-01T15:42:39;26.20;99.90
17879;DHT22;9065;51.050;13.758;2022-08-01T15:45:07;26.20;99.90
17879;DHT22;9065;51.050;13.758;2022-08-01T15:47:39;26.20;99.90
17879;DHT22;9065;51.050;13.758;2022-08-01T15:50:08;26.10;99.90